Time,TemperatureF,DewpointF,PressureIn,WindDirection,WindDirectionDegrees,WindSpeedMPH,WindSpeedGustMPH,Humidity,HourlyPrecipIn,Conditions,Clouds,dailyrainin,SoftwareType,DateUTC
2013-08-21 03:00:00,72.0,66.6,29.46,SSW,203,0.0,0.0,83,0.00,,,0.00,WUHU216HW,2013-08-21 08:00:00,
2013-08-21 03:05:00,71.8,66.4,29.46,South,184,0.4,2.2,83,0.00,,,0.00,WUHU216HW,2013-08-21 08:05:00,
2013-08-21 03:10:00,71.8,66.4,29.47,South,180,1.8,2.2,83,0.00,,,0.00,WUHU216HW,2013-08-21 08:10:00,
2013-08-21 03:15:00,71.8,66.4,29.46,ESE,113,1.1,2.0,83,0.00,,,0.00,WUHU216HW,2013-08-21 08:15:00,
2013-08-21 03:20:00,71.8,66.8,29.46,SSW,205,0.8,2.2,84,0.00,,,0.00,WUHU216HW,2013-08-21 08:20:00,
2013-08-21 03:25:00,71.8,66.4,29.46,SE,135,1.6,2.2,83,0.00,,,0.00,WUHU216HW,2013-08-21 08:25:00,
2013-08-21 03:30:00,71.8,66.4,29.46,SE,135,1.1,1.6,83,0.00,,,0.00,WUHU216HW,2013-08-21 08:30:00,
2013-08-21 03:35:00,71.8,66.4,29.46,ESE,114,0.9,1.6,83,0.00,,,0.00,WUHU216HW,2013-08-21 08:35:00,
2013-08-21 03:40:00,71.8,66.8,29.46,South,172,0.9,1.8,84,0.00,,,0.00,WUHU216HW,2013-08-21 08:40:00,
2013-08-21 03:45:00,71.8,66.8,29.46,South,180,1.1,1.8,84,0.00,,,0.00,WUHU216HW,2013-08-21 08:45:00,
2013-08-21 03:50:00,71.8,66.4,29.46,SSE,154,0.3,1.8,83,0.00,,,0.00,WUHU216HW,2013-08-21 08:50:00,
2013-08-21 03:55:00,71.6,66.6,29.47,ESE,119,1.1,1.3,84,0.00,,,0.00,WUHU216HW,2013-08-21 08:55:00,
2013-08-21 04:00:00,71.6,66.6,29.47,SE,129,1.0,1.8,84,0.00,,,0.00,WUHU216HW,2013-08-21 09:00:00,
2013-08-21 04:05:00,71.5,66.8,29.47,South,180,1.3,1.8,85,0.00,,,0.00,WUHU216HW,2013-08-21 09:05:00,
2013-08-21 04:10:00,71.5,66.8,29.47,South,189,0.5,1.8,85,0.00,,,0.00,WUHU216HW,2013-08-21 09:10:00,
2013-08-21 04:15:00,71.3,66.6,29.47,South,174,0.8,1.8,85,0.00,,,0.00,WUHU216HW,2013-08-21 09:15:00,
2013-08-21 04:20:00,71.1,66.1,29.47,South,176,0.2,1.8,84,0.00,,,0.00,WUHU216HW,2013-08-21 09:20:00,
2013-08-21 04:25:00,70.9,65.9,29.47,ESE,113,0.9,0.9,84,0.00,,,0.00,WUHU216HW,2013-08-21 09:25:00,
2013-08-21 04:30:00,70.9,66.2,29.47,SE,135,0.4,1.3,85,0.00,,,0.00,WUHU216HW,2013-08-21 09:30:00,
2013-08-21 04:35:00,70.9,66.2,29.47,SSE,158,0.9,1.3,85,0.00,,,0.00,WUHU216HW,2013-08-21 09:35:00,
2013-08-21 04:40:00,70.9,66.2,29.47,SSE,158,0.9,1.1,85,0.00,,,0.00,WUHU216HW,2013-08-21 09:40:00,
2013-08-21 05:00:00,70.9,66.2,29.47,ESE,113,0.9,0.9,85,0.00,,,0.00,WUHU216HW,2013-08-21 10:00:00,
2013-08-21 05:05:00,70.9,66.2,29.47,SE,135,0.7,0.9,85,0.00,,,0.00,WUHU216HW,2013-08-21 10:05:00,